Portada
METAR-TAF:

METAR-TAF

Aeroports :

Northwest Arkansas Regional Airport

Fayetteville, Arkansas, Estats Units d'Amèrica

latitud: 36-16-55N, longitud: 094-18-25W, altitud: 392 m

Observació

L'informe es va fer fa 1 hora i 4 minuts, a les 11:53 UTC
Vent 3 kt del Oest/Sud-Oest
Temperatura 4°C
Humitat 81%
Pressió 1013 hPa
Visibilitat: 16.1 km
Cel clar

METAR: KXNA 191153Z 25003KT 10SM CLR 04/01 A2990 RMK AO2 SLP126 T00440006 10139 20039 53010

Hora: 06:57 (12:57 UTC)

Pronòstic

L'informe es va fer fa 1 hora i 1 minuts, a les 11:56 UTC
Pronòstic vàlid del 19 a les 12 UTC al 20 a les 12 UTC
Vent 4 kt amb direcció variable
Visibilitat: 10 km
Cel clar

TAF: KXNA 191156Z 1912/2012 VRB04KT P6SM SKC

Observacions i pronòstics meteorològics de més de 4000 aeroports (METAR i TAF).

Les estacions disponibles són els punts grocs i vermells al mapa.

Posi el ratolí al punt desitjat per veure el nom de l'estació.

Feu clic per veure les observacions i els pronòstics meteorològics.

Per canviar el mapa: feu clic els botons verds amb una creu de color negre per apropar; al botó verd amb un guió per allunyar la imatge; o en les fletxes verdes per a mapes adjacents.


METAR-TAF: